Time;durP1;ratioP1;P1;durP2;ratioP2;P2;SDS_P1;SDS_P2;PMS_P1;PMS_P2;Temp;Humidity;BMP_temperature;BMP_pressure;BME280_temperature;BME280_humidity;BME280_pressure;Samples;Min_cycle;Max_cycle;Signal;HPM_P1;HPM_P2
2023/03/07 06:59:35;;;;;;;;;7.25;6.25;;;;;17.69;41.01;99955.16;5052931;27;45443;-75
2023/03/07 07:02:02;;;;;;;;;4.50;4.50;;;;;18.14;42.00;99958.88;5048004;28;45494;-74
2023/03/07 07:04:28;;;;;;;;;4.25;4.25;;;;;18.82;42.55;99957.50;5046551;28;45314;-77
2023/03/07 07:06:53;;;;;;;;;4.75;4.75;;;;;19.60;42.48;99949.59;5038494;28;45404;-76
2023/03/07 07:09:18;;;;;;;;;5.00;5.00;;;;;20.40;42.38;99946.63;5021652;27;46508;-71
2023/03/07 07:11:44;;;;;;;;;4.75;4.75;;;;;21.14;41.67;99948.44;5038844;28;45404;-74
2023/03/07 07:14:09;;;;;;;;;4.00;4.00;;;;;21.80;40.54;99946.59;5037798;27;45448;-74
2023/03/07 07:16:35;;;;;;;;;6.25;3.25;;;;;22.38;40.06;99947.09;5036895;28;45490;-76
2023/03/07 07:19:00;;;;;;;;;5.50;3.25;;;;;22.92;39.70;99952.59;5036163;27;46087;-78
2023/03/07 07:21:26;;;;;;;;;4.75;4.75;;;;;23.40;38.74;99951.44;5030420;28;45425;-80
2023/03/07 07:23:51;;;;;;;;;5.25;5.25;;;;;23.76;37.99;99952.53;5041376;28;45772;-77
2023/03/07 07:26:17;;;;;;;;;6.00;5.00;;;;;24.11;37.33;99954.66;5045853;28;45538;-77
2023/03/07 07:28:42;;;;;;;;;5.67;4.00;;;;;24.42;36.60;99950.78;5044946;28;45927;-78
2023/03/07 07:31:07;;;;;;;;;5.33;5.00;;;;;24.65;36.33;99949.75;5029374;27;45301;-78
2023/03/07 07:33:33;;;;;;;;;4.33;2.67;;;;;24.89;36.04;99958.53;5045184;28;45569;-82
2023/03/07 07:35:58;;;;;;;;;6.00;5.00;;;;;25.11;35.57;99962.03;5044651;28;45591;-79
2023/03/07 07:38:23;;;;;;;;;5.67;4.00;;;;;25.29;35.54;99964.25;5034041;27;46126;-77
2023/03/07 07:40:49;;;;;;;;;4.33;4.33;;;;;25.45;34.88;99954.09;5035883;27;45439;-78
2023/03/07 07:43:16;;;;;;;;;5.67;5.67;;;;;25.60;34.51;99954.84;5023455;28;45448;-77
2023/03/07 07:45:42;;;;;;;;;4.67;4.67;;;;;25.76;34.05;99952.81;5034932;28;45695;-78
2023/03/07 07:48:07;;;;;;;;;5.33;4.00;;;;;25.90;34.05;99950.97;5036559;28;46019;-78
2023/03/07 07:50:33;;;;;;;;;6.67;4.00;;;;;26.03;34.05;99944.72;5040551;28;45433;-78
2023/03/07 07:52:58;;;;;;;;;4.00;4.00;;;;;26.18;33.57;99952.72;5036273;27;45516;-80
2023/03/07 07:55:23;;;;;;;;;6.00;6.00;;;;;26.29;33.29;99957.59;5043039;27;45401;-82
2023/03/07 07:57:50;;;;;;;;;5.33;5.33;;;;;26.40;33.05;99958.06;5035318;28;46070;-82
2023/03/07 08:00:19;;;;;;;;;5.00;5.00;;;;;26.47;32.66;99953.44;5042819;27;45409;-79
2023/03/07 08:02:46;;;;;;;;;4.67;4.67;;;;;26.57;32.85;99959.31;5037993;28;46682;-77
2023/03/07 08:05:12;;;;;;;;;4.67;4.67;;;;;26.68;32.59;99965.19;5045615;28;45548;-79
2023/03/07 08:07:37;;;;;;;;;5.00;3.00;;;;;26.78;32.67;99973.78;5025430;28;45950;-79
2023/03/07 08:10:03;;;;;;;;;7.33;5.00;;;;;26.88;32.18;99972.50;5032868;27;54610;-88
2023/03/07 08:12:28;;;;;;;;;4.67;3.00;;;;;26.98;31.82;99966.69;5028448;28;45427;-84
2023/03/07 08:14:53;;;;;;;;;4.67;4.00;;;;;27.06;31.93;99964.56;5030586;28;47930;-78
2023/03/07 08:17:18;;;;;;;;;4.33;4.33;;;;;27.13;32.24;99958.28;5025778;27;46326;-84
2023/03/07 08:19:44;;;;;;;;;4.00;4.00;;;;;27.20;31.69;99961.81;5031251;27;45359;-80
2023/03/07 08:22:09;;;;;;;;;4.00;4.00;;;;;27.27;31.45;99981.75;5010734;27;45526;-81
2023/03/07 08:24:34;;;;;;;;;4.00;4.00;;;;;27.32;31.84;99973.75;5032121;28;45876;-84
2023/03/07 08:27:00;;;;;;;;;3.67;3.67;;;;;27.37;30.94;99984.00;5031235;28;45672;-81
2023/03/07 08:29:26;;;;;;;;;1.67;1.67;;;;;27.40;30.98;99972.69;5030137;27;45539;-85
2023/03/07 08:31:53;;;;;;;;;4.33;4.33;;;;;27.42;31.26;99973.31;5026111;27;45730;-89
2023/03/07 08:34:19;;;;;;;;;3.00;3.00;;;;;27.46;31.09;99971.81;5027965;27;45543;-81
2023/03/07 08:36:44;;;;;;;;;7.00;2.67;;;;;27.47;31.16;99973.50;5026111;27;46097;-82
2023/03/07 08:39:10;;;;;;;;;4.33;4.00;;;;;27.52;30.83;99975.59;5031748;28;45420;-80
2023/03/07 08:41:36;;;;;;;;;5.00;3.00;;;;;27.56;31.08;99982.28;5020706;27;45446;-84
2023/03/07 08:44:01;;;;;;;;;5.67;4.00;;;;;27.58;30.46;99979.31;5070124;27;45662;-87
2023/03/07 08:46:27;;;;;;;;;3.67;3.67;;;;;27.61;30.02;99985.25;5042010;27;50373;-80
2023/03/07 08:48:52;;;;;;;;;5.33;5.33;;;;;27.62;30.69;99986.06;5028183;27;45605;-86
2023/03/07 08:51:18;;;;;;;;;8.67;7.00;;;;;27.61;30.14;99984.41;5026700;27;45750;-77
2023/03/07 08:53:44;;;;;;;;;6.33;6.00;;;;;27.60;30.33;99989.03;5030658;27;45627;-76
2023/03/07 08:56:13;;;;;;;;;4.67;4.67;;;;;27.57;30.30;99992.13;5029953;28;45948;-76
2023/03/07 08:58:39;;;;;;;;;3.67;3.67;;;;;27.55;30.13;99979.78;5024567;28;45462;-76
2023/03/07 09:01:06;;;;;;;;;5.00;3.00;;;;;27.54;29.66;99978.13;5030498;28;45942;-76
2023/03/07 09:03:32;;;;;;;;;7.00;5.33;;;;;27.53;29.42;99980.00;5030972;28;45456;-76
2023/03/07 09:05:57;;;;;;;;;3.33;3.33;;;;;27.53;29.34;99979.13;5029375;27;45329;-77
2023/03/07 09:08:22;;;;;;;;;2.67;2.67;;;;;27.51;29.28;99973.94;5025909;27;45397;-78
2023/03/07 09:10:48;;;;;;;;;4.67;4.00;;;;;27.52;29.32;99978.31;5024199;27;45547;-79
2023/03/07 09:13:13;;;;;;;;;6.33;5.00;;;;;27.51;29.21;99967.63;5011853;28;45605;-75
2023/03/07 09:15:40;;;;;;;;;4.67;4.00;;;;;27.49;29.54;99963.22;5031205;28;46278;-75
2023/03/07 09:18:07;;;;;;;;;8.00;5.00;;;;;27.46;29.35;99968.28;5012947;28;45463;-77
2023/03/07 09:20:32;;;;;;;;;5.67;5.67;;;;;27.43;29.73;99960.53;5031189;28;45456;-81
2023/03/07 09:22:57;;;;;;;;;5.00;4.00;;;;;27.43;29.55;99958.63;5029988;28;45425;-87
2023/03/07 09:25:23;;;;;;;;;4.00;4.00;;;;;27.43;29.82;99960.53;5023133;28;46059;-84
2023/03/07 09:27:49;;;;;;;;;3.00;3.00;;;;;27.44;29.27;99964.91;5029375;27;45419;-90
2023/03/07 09:30:15;;;;;;;;;4.00;4.00;;;;;27.44;29.09;99957.59;5023298;27;45395;-85
2023/03/07 09:32:40;;;;;;;;;7.33;6.00;;;;;27.45;29.06;99959.25;5022244;27;45402;-82
2023/03/07 09:35:06;;;;;;;;;3.33;3.33;;;;;27.49;28.90;99963.22;5020536;27;46993;-81
2023/03/07 09:37:32;;;;;;;;;5.00;4.00;;;;;27.51;29.89;99956.72;5017444;27;45833;-77
2023/03/07 09:39:57;;;;;;;;;3.00;3.00;;;;;27.53;29.16;99960.06;5031270;28;45409;-80
2023/03/07 09:42:39;;;;;;;;;4.00;4.00;;;;;27.56;29.65;99957.75;5017552;27;45434;-83
2023/03/07 09:45:23;;;;;;;;;8.00;5.00;;;;;27.59;29.18;99957.31;5028800;27;46083;-82
2023/03/07 09:48:14;;;;;;;;;6.33;3.00;;;;;27.61;29.07;99958.00;5025113;27;45635;-81
2023/03/07 09:50:54;;;;;;;;;6.00;6.00;;;;;27.62;28.94;99950.63;4952458;28;45441;-76
2023/03/07 09:53:35;;;;;;;;;6.00;5.00;;;;;27.62;28.97;99951.47;5007448;28;45830;-76
2023/03/07 09:56:06;;;;;;;;;5.33;5.33;;;;;27.57;29.17;99943.09;4980459;28;46167;-83
2023/03/07 09:58:32;;;;;;;;;4.00;4.00;;;;;27.54;29.22;99934.50;4966748;28;45598;-78
2023/03/07 10:01:00;;;;;;;;;6.67;4.67;;;;;27.55;29.40;99931.53;4968088;28;45547;-77
2023/03/07 10:03:34;;;;;;;;;6.67;5.00;;;;;27.55;28.86;99923.38;4969174;28;45584;-76
2023/03/07 10:06:15;;;;;;;;;3.33;2.67;;;;;27.57;29.45;99931.31;4967771;28;45543;-77
2023/03/07 10:08:40;;;;;;;;;5.00;5.00;;;;;27.57;29.11;99925.88;4967754;28;45528;-76
2023/03/07 10:11:21;;;;;;;;;3.67;3.67;;;;;27.59;28.84;99919.16;4965407;28;45742;-77
2023/03/07 10:14:02;;;;;;;;;4.00;4.00;;;;;27.57;29.38;99920.44;4959669;28;45623;-82
2023/03/07 10:16:44;;;;;;;;;3.67;3.67;;;;;27.63;29.41;99919.63;4967228;28;45551;-81
2023/03/07 10:19:35;;;;;;;;;6.67;6.67;;;;;27.66;29.55;99924.63;4967104;28;45530;-81
2023/03/07 10:22:28;;;;;;;;;3.67;3.67;;;;;27.71;28.82;99910.34;4996122;28;45476;-80
2023/03/07 10:25:07;;;;;;;;;5.67;5.00;;;;;27.73;29.39;99916.41;4966770;28;45577;-82
2023/03/07 10:27:32;;;;;;;;;5.00;5.00;;;;;27.73;28.72;99917.25;4979353;27;45665;-77
2023/03/07 10:30:00;;;;;;;;;3.33;3.33;;;;;27.73;28.58;99916.41;5010317;28;45414;-78
2023/03/07 10:32:36;;;;;;;;;6.00;4.67;;;;;27.71;28.86;99913.06;5010370;28;45416;-78
2023/03/07 10:35:10;;;;;;;;;4.67;4.67;;;;;27.66;28.25;99905.53;5010449;28;45615;-78
2023/03/07 10:37:52;;;;;;;;;3.33;3.33;;;;;27.59;28.68;99902.81;5008414;28;46592;-78
2023/03/07 10:40:32;;;;;;;;;4.33;4.33;;;;;27.53;28.01;99905.56;5002905;28;45441;-77
2023/03/07 10:42:58;;;;;;;;;7.00;5.00;;;;;27.47;27.89;99896.38;4998127;28;46371;-79
2023/03/07 10:45:28;;;;;;;;;4.00;3.33;;;;;27.43;28.17;99897.84;5003069;28;45468;-78
2023/03/07 10:47:53;;;;;;;;;4.00;4.00;;;;;27.38;28.68;99886.78;5009236;27;45491;-76
2023/03/07 10:50:37;;;;;;;;;3.67;3.67;;;;;27.34;28.63;99889.91;5014234;28;55663;-76
2023/03/07 10:53:08;;;;;;;;;6.00;5.33;;;;;27.30;27.97;99891.38;4998015;27;45399;-76
2023/03/07 10:55:41;;;;;;;;;12.00;8.33;;;;;27.27;28.51;99883.66;5015524;28;45384;-77
2023/03/07 10:58:19;;;;;;;;;5.00;4.00;;;;;27.21;28.51;99879.91;5017276;28;45522;-77
2023/03/07 11:00:56;;;;;;;;;9.00;6.00;;;;;27.19;28.52;99892.06;5039474;28;45489;-77
2023/03/07 11:03:32;;;;;;;;;7.33;5.00;;;;;27.14;27.89;99884.53;5029795;28;45470;-77
2023/03/07 11:05:59;;;;;;;;;9.33;5.00;;;;;27.10;28.05;99895.00;5025819;28;45711;-77
2023/03/07 11:08:33;;;;;;;;;4.67;4.67;;;;;27.10;28.27;99892.28;5051872;27;46488;-77
2023/03/07 11:11:03;;;;;;;;;3.67;3.67;;;;;27.11;27.95;99895.84;5032446;27;45369;-77
2023/03/07 11:13:30;;;;;;;;;5.67;4.67;;;;;27.11;28.30;99893.13;5029089;28;45377;-77
2023/03/07 11:16:14;;;;;;;;;6.00;5.67;;;;;27.08;28.19;99894.41;5028297;28;45393;-77
2023/03/07 11:18:42;;;;;;;;;5.00;5.00;;;;;27.08;28.11;99899.84;5009478;28;46327;-78
2023/03/07 11:21:29;;;;;;;;;5.00;5.00;;;;;27.08;28.08;99896.28;5028487;28;45363;-78
2023/03/07 11:24:05;;;;;;;;;5.33;4.67;;;;;27.07;28.18;99903.63;5029784;28;45496;-78
2023/03/07 11:26:37;;;;;;;;;3.00;3.00;;;;;27.07;28.12;99898.19;5028379;28;45325;-77
2023/03/07 11:29:12;;;;;;;;;5.67;5.00;;;;;27.08;27.70;99888.94;5024902;28;46452;-78
2023/03/07 11:31:58;;;;;;;;;4.00;4.00;;;;;27.08;27.81;99888.09;5027349;28;45327;-77
2023/03/07 11:35:05;;;;;;;;;7.33;6.33;;;;;27.08;27.99;99888.09;5026392;28;45696;-78
2023/03/07 11:37:38;;;;;;;;;4.67;4.33;;;;;27.08;27.86;99888.09;5032136;27;45453;-78
2023/03/07 11:40:22;;;;;;;;;4.00;4.00;;;;;27.09;27.78;99892.50;5018797;27;46951;-77
2023/03/07 11:43:21;;;;;;;;;8.00;7.00;;;;;27.09;28.13;99897.94;5026066;27;45562;-77
2023/03/07 11:45:59;;;;;;;;;5.67;5.00;;;;;27.07;27.39;99900.91;5072457;27;45473;-77
2023/03/07 11:48:51;;;;;;;;;5.00;5.00;;;;;27.06;27.63;99906.56;5076761;27;45450;-78
2023/03/07 11:51:42;;;;;;;;;5.33;5.00;;;;;27.04;27.96;99895.88;5065460;27;45550;-78
2023/03/07 11:54:50;;;;;;;;;4.67;4.67;;;;;27.06;28.11;99901.94;5071570;27;45824;-78
2023/03/07 11:57:40;;;;;;;;;4.67;4.67;;;;;27.07;28.22;99910.94;4992849;28;45633;-77
2023/03/07 12:00:33;;;;;;;;;4.33;4.33;;;;;27.05;27.71;99908.44;4992859;28;45545;-76
2023/03/07 12:03:25;;;;;;;;;5.33;5.00;;;;;27.03;27.96;99902.38;4986019;28;45499;-79
2023/03/07 12:07:32;;;;;;;;;5.67;5.67;;;;;26.93;28.04;99910.97;5019581;27;45856;-83
2023/03/07 12:10:22;;;;;;;;;4.00;4.00;;;;;26.89;27.65;99915.13;5039151;28;45505;-83
2023/03/07 12:12:56;;;;;;;;;4.00;4.00;;;;;26.91;28.32;99912.19;5043470;28;45799;-82
2023/03/07 12:15:46;;;;;;;;;6.00;6.00;;;;;26.98;27.93;99918.50;5039728;27;45442;-80
2023/03/07 12:18:23;;;;;;;;;6.00;5.33;;;;;27.03;27.72;99912.41;5035796;27;45511;-80
2023/03/07 12:21:16;;;;;;;;;6.67;4.00;;;;;27.07;27.94;99921.84;5041325;27;45370;-77
2023/03/07 12:23:47;;;;;;;;;7.67;7.67;;;;;27.08;28.00;99918.91;5034221;27;45384;-77
2023/03/07 12:26:22;;;;;;;;;6.67;6.67;;;;;27.10;27.48;99921.44;5044226;28;45531;-77
2023/03/07 12:29:08;;;;;;;;;5.67;5.67;;;;;27.09;28.03;99917.84;5043129;28;46302;-77
2023/03/07 12:31:38;;;;;;;;;8.00;6.33;;;;;27.10;27.78;99919.53;5038357;28;45464;-77
2023/03/07 12:34:10;;;;;;;;;6.33;5.00;;;;;27.09;27.56;99917.00;5043012;28;45400;-78
2023/03/07 12:36:55;;;;;;;;;5.33;5.33;;;;;27.09;27.58;99917.00;5041593;28;45406;-80
2023/03/07 12:39:35;;;;;;;;;5.33;5.33;;;;;27.07;27.83;99897.34;5034278;28;46012;-79
2023/03/07 12:42:16;;;;;;;;;8.00;5.33;;;;;27.10;27.42;99891.47;5035413;27;47011;-79
2023/03/07 12:44:53;;;;;;;;;5.33;5.33;;;;;27.13;28.00;99882.03;5068911;27;45366;-78
2023/03/07 12:47:55;;;;;;;;;8.00;5.33;;;;;27.18;27.64;99865.88;5044795;27;45652;-79
2023/03/07 12:50:32;;;;;;;;;4.33;4.33;;;;;27.25;27.82;99865.88;5066268;28;48482;-82
2023/03/07 12:53:09;;;;;;;;;8.33;5.67;;;;;27.30;28.18;99874.22;4997314;28;45500;-87
2023/03/07 12:55:46;;;;;;;;;4.67;3.00;;;;;27.39;27.76;99872.09;4963185;28;45440;-78
2023/03/07 12:58:31;;;;;;;;;4.00;4.00;;;;;27.46;27.84;99870.19;4964389;28;45451;-79
2023/03/07 13:01:11;;;;;;;;;5.00;4.33;;;;;27.50;28.25;99865.94;4964159;28;46164;-78
2023/03/07 13:03:45;;;;;;;;;6.33;4.00;;;;;27.55;28.24;99868.03;4969308;28;45502;-80
2023/03/07 13:06:17;;;;;;;;;8.33;7.00;;;;;27.62;27.93;99860.69;4967878;28;45397;-78
2023/03/07 13:08:48;;;;;;;;;6.00;4.00;;;;;27.67;28.54;99865.50;4963641;28;45447;-77
2023/03/07 13:11:22;;;;;;;;;8.00;5.33;;;;;27.70;28.25;99874.06;4964644;28;46218;-79
2023/03/07 13:13:58;;;;;;;;;6.00;5.00;;;;;27.74;27.84;99878.03;4963394;28;45430;-77
2023/03/07 13:16:41;;;;;;;;;6.33;6.33;;;;;27.80;28.22;99880.94;4962545;28;45457;-77
2023/03/07 13:19:28;;;;;;;;;5.33;5.33;;;;;27.83;28.37;99873.16;4950154;28;45508;-77
2023/03/07 13:21:53;;;;;;;;;4.00;4.00;;;;;27.87;28.09;99871.66;4951412;28;46644;-76
2023/03/07 13:24:33;;;;;;;;;6.33;4.00;;;;;27.90;27.83;99864.94;4965345;28;45986;-74
2023/03/07 13:26:59;;;;;;;;;10.67;6.00;;;;;27.89;28.08;99852.38;5007710;27;45663;-79
2023/03/07 13:30:15;;;;;;;;;2.33;2.33;;;;;27.84;27.56;99850.28;5043785;27;45410;-77
2023/03/07 13:32:55;;;;;;;;;5.33;4.33;;;;;27.85;28.14;99860.16;5030219;27;46306;-79
2023/03/07 13:35:23;;;;;;;;;7.00;4.00;;;;;27.86;28.06;99866.44;5019772;28;45530;-80
2023/03/07 13:38:04;;;;;;;;;7.67;4.00;;;;;27.86;28.18;99858.25;5024072;28;45474;-80
2023/03/07 13:40:32;;;;;;;;;7.00;5.67;;;;;27.91;27.64;99868.50;5029294;28;45542;-76
2023/03/07 13:42:57;;;;;;;;;4.00;4.00;;;;;27.92;27.55;99871.03;5024519;28;45552;-77
2023/03/07 13:45:46;;;;;;;;;6.67;3.67;;;;;27.96;28.40;99876.88;5030768;28;45449;-77
2023/03/07 13:48:32;;;;;;;;;6.00;3.00;;;;;27.98;27.94;99872.88;5006014;28;45698;-77
2023/03/07 13:50:57;;;;;;;;;3.00;2.33;;;;;28.00;27.88;99876.19;5031945;28;45783;-78
2023/03/07 13:53:49;;;;;;;;;3.00;2.67;;;;;28.04;27.66;99873.03;5036140;28;46064;-78
2023/03/07 13:56:14;;;;;;;;;3.67;3.67;;;;;28.06;28.23;99879.09;5030963;28;45367;-79
2023/03/07 13:59:19;;;;;;;;;4.00;4.00;;;;;28.08;27.69;99877.00;5029295;27;45641;-77
2023/03/07 14:01:55;;;;;;;;;4.00;4.00;;;;;28.09;28.24;99881.38;5011911;28;45436;-80
2023/03/07 14:04:25;;;;;;;;;2.33;2.33;;;;;28.09;28.05;99882.25;5031621;28;45542;-80
2023/03/07 14:06:54;;;;;;;;;6.00;6.00;;;;;28.09;27.67;99867.75;5019656;28;45474;-82
2023/03/07 14:09:38;;;;;;;;;3.00;3.00;;;;;28.10;28.16;99875.72;5029443;28;45481;-89
2023/03/07 14:12:25;;;;;;;;;4.33;4.33;;;;;28.11;28.24;99871.94;5025554;28;45559;-78
2023/03/07 14:15:17;;;;;;;;;6.00;3.33;;;;;28.11;28.00;99873.81;5011203;27;48254;-79
2023/03/07 14:18:09;;;;;;;;;5.00;4.00;;;;;28.08;28.38;99880.53;5030077;27;45590;-79
2023/03/07 14:21:10;;;;;;;;;5.33;4.33;;;;;28.06;28.27;99879.09;5067360;27;45424;-81
2023/03/07 14:24:06;;;;;;;;;6.00;6.00;;;;;28.04;28.31;99884.78;5022941;28;45587;-80
2023/03/07 14:26:37;;;;;;;;;4.67;4.67;;;;;28.00;27.86;99892.56;5019002;27;45784;-83
2023/03/07 14:29:17;;;;;;;;;2.67;2.67;;;;;27.99;28.45;99895.50;5029406;28;45479;-84
2023/03/07 14:31:45;;;;;;;;;2.67;2.33;;;;;27.96;28.41;99896.78;5031258;28;45448;-81
2023/03/07 14:34:31;;;;;;;;;5.00;5.00;;;;;27.99;28.42;99900.94;5030239;27;45411;-82
2023/03/07 14:37:04;;;;;;;;;2.33;2.33;;;;;27.98;27.91;99899.28;5022748;28;46519;-80
2023/03/07 14:39:52;;;;;;;;;3.00;3.00;;;;;27.96;28.17;99885.03;5053524;27;45440;-79
2023/03/07 14:42:33;;;;;;;;;3.00;3.00;;;;;27.95;28.07;99873.28;5010931;28;45690;-79
2023/03/07 14:45:10;;;;;;;;;4.00;3.00;;;;;27.94;28.49;99874.34;5029003;27;45561;-80
2023/03/07 14:47:51;;;;;;;;;4.00;4.00;;;;;27.93;28.61;99864.50;5031270;28;45413;-79
2023/03/07 14:50:24;;;;;;;;;2.67;2.33;;;;;27.94;28.53;99874.34;5028078;28;45438;-75
2023/03/07 14:53:01;;;;;;;;;4.67;3.33;;;;;27.93;27.89;99871.84;5030032;27;45484;-82
2023/03/07 14:55:34;;;;;;;;;6.67;5.67;;;;;27.93;28.34;99872.69;5033142;28;45287;-80
2023/03/07 14:57:59;;;;;;;;;4.00;3.67;;;;;27.92;28.47;99873.75;5018743;28;46068;-80
2023/03/07 15:00:27;;;;;;;;;4.00;2.33;;;;;27.91;28.38;99863.06;5024525;28;45429;-80
2023/03/07 15:02:54;;;;;;;;;5.00;3.00;;;;;27.92;27.80;99862.84;5025634;28;45538;-78
2023/03/07 15:05:23;;;;;;;;;3.00;3.00;;;;;27.94;28.60;99873.50;5027757;27;45564;-78
2023/03/07 15:07:50;;;;;;;;;5.00;2.00;;;;;27.91;28.54;99863.88;5030304;28;46357;-78
2023/03/07 15:10:23;;;;;;;;;5.33;3.67;;;;;27.96;28.15;99872.22;5029950;28;45696;-78
2023/03/07 15:12:53;;;;;;;;;6.00;3.33;;;;;27.96;28.17;99872.22;5031002;28;45464;-78
2023/03/07 15:15:30;;;;;;;;;3.33;3.33;;;;;27.97;28.46;99883.97;5028973;28;45534;-78
2023/03/07 15:18:02;;;;;;;;;3.33;3.33;;;;;27.98;28.86;99882.91;5030520;28;46134;-80
2023/03/07 15:20:28;;;;;;;;;5.67;4.00;;;;;27.96;28.42;99869.50;5033327;28;45476;-78
2023/03/07 15:23:03;;;;;;;;;6.00;4.00;;;;;27.96;28.32;99871.41;5029981;28;45905;-82
2023/03/07 15:25:29;;;;;;;;;4.00;4.00;;;;;27.98;28.69;99866.56;5029335;28;45589;-85
2023/03/07 15:28:15;;;;;;;;;4.33;3.67;;;;;27.98;28.29;99853.78;5029994;27;45856;-78
2023/03/07 15:30:46;;;;;;;;;4.00;2.67;;;;;27.99;28.24;99847.25;5039320;28;45433;-78
2023/03/07 15:33:17;;;;;;;;;3.00;3.00;;;;;27.98;28.36;99848.31;5030731;28;45390;-75
2023/03/07 15:35:46;;;;;;;;;2.00;2.00;;;;;27.99;28.36;99852.72;5026775;27;45476;-77
2023/03/07 15:38:22;;;;;;;;;2.33;2.33;;;;;28.00;28.93;99854.38;5039992;27;45506;-78
2023/03/07 15:40:48;;;;;;;;;6.00;4.00;;;;;28.02;28.26;99860.47;5023752;28;45379;-78
2023/03/07 15:43:25;;;;;;;;;5.33;3.67;;;;;27.99;28.96;99849.97;5031228;27;45477;-82
2023/03/07 15:46:00;;;;;;;;;3.67;2.67;;;;;28.04;28.66;99860.25;5016926;28;45636;-78
2023/03/07 15:48:46;;;;;;;;;4.33;4.33;;;;;28.09;28.88;99854.13;5014277;28;45523;-82
2023/03/07 15:51:17;;;;;;;;;1.33;1.00;;;;;28.11;28.96;99857.44;5038401;28;45453;-83
2023/03/07 15:53:43;;;;;;;;;1.00;1.00;;;;;28.18;29.21;99862.84;5028964;28;45512;-81
2023/03/07 15:56:30;;;;;;;;;1.33;1.33;;;;;28.21;28.68;99855.09;5018548;27;45478;-82
2023/03/07 15:59:06;;;;;;;;;5.33;2.00;;;;;28.24;28.63;99854.66;5017809;28;46030;-84
2023/03/07 16:01:31;;;;;;;;;3.00;2.00;;;;;28.27;29.31;99861.56;5030454;28;46107;-84
2023/03/07 16:03:59;;;;;;;;;2.33;2.33;;;;;28.32;28.60;99861.72;5029755;28;46796;-92
2023/03/07 16:06:36;;;;;;;;;3.00;3.00;;;;;28.37;28.80;99858.34;5030121;28;45553;-87
2023/03/07 16:09:03;;;;;;;;;2.67;2.67;;;;;28.40;29.18;99858.72;5027947;28;46504;-82
2023/03/07 16:11:29;;;;;;;;;2.00;2.00;;;;;28.45;29.24;99852.63;5027667;28;45398;-79
2023/03/07 16:13:54;;;;;;;;;2.33;2.00;;;;;28.49;28.68;99851.09;5030321;28;45393;-81
2023/03/07 16:16:25;;;;;;;;;2.00;2.00;;;;;28.56;28.59;99858.41;5028772;27;45413;-81
2023/03/07 16:18:52;;;;;;;;;3.00;3.00;;;;;28.58;29.19;99854.38;5011273;28;48443;-78
2023/03/07 16:21:18;;;;;;;;;3.00;2.00;;;;;28.63;28.91;99859.16;5029603;28;45468;-78
2023/03/07 16:23:45;;;;;;;;;1.00;1.00;;;;;28.66;28.63;99875.91;5028503;28;45344;-82
2023/03/07 16:26:20;;;;;;;;;2.00;2.00;;;;;28.69;28.94;99869.16;5008027;27;45603;-82
2023/03/07 16:28:46;;;;;;;;;2.00;0.33;;;;;28.71;28.75;99869.78;5021539;28;45511;-82
2023/03/07 16:31:14;;;;;;;;;4.00;2.67;;;;;28.74;28.55;99869.34;5028802;28;45481;-82
2023/03/07 16:33:40;;;;;;;;;3.00;1.00;;;;;28.77;28.66;99859.88;5025967;28;45445;-84
2023/03/07 16:36:07;;;;;;;;;2.00;2.00;;;;;28.79;29.20;99860.47;5026284;28;45667;-86
2023/03/07 16:38:32;;;;;;;;;1.33;1.33;;;;;28.82;29.28;99856.47;5027101;28;46418;-76
2023/03/07 16:40:59;;;;;;;;;3.00;3.00;;;;;28.80;28.57;99859.41;5024296;27;51609;-77
2023/03/07 16:43:32;;;;;;;;;2.67;2.67;;;;;28.77;28.55;99863.44;5028612;28;45430;-88
2023/03/07 16:46:00;;;;;;;;;3.67;3.00;;;;;28.73;28.53;99859.47;5029930;28;45613;-89
2023/03/07 16:48:25;;;;;;;;;4.00;2.67;;;;;28.69;27.84;99863.72;5028299;28;46256;-79
2023/03/07 16:50:50;;;;;;;;;4.00;2.00;;;;;28.70;28.55;99861.81;5025814;27;45470;-79
2023/03/07 16:53:16;;;;;;;;;2.33;2.33;;;;;28.68;27.97;99867.50;5026916;28;45428;-79
2023/03/07 16:55:42;;;;;;;;;5.33;3.00;;;;;28.64;27.23;99864.41;5029465;27;45355;-78
2023/03/07 16:58:19;;;;;;;;;5.00;5.00;;;;;28.58;27.32;99865.31;5028991;28;45625;-78
2023/03/07 17:00:44;;;;;;;;;4.33;3.33;;;;;28.49;27.47;99864.72;5029219;27;45496;-78
2023/03/07 17:03:10;;;;;;;;;3.00;3.00;;;;;28.42;27.32;99863.97;5030122;27;45546;-78
2023/03/07 17:05:35;;;;;;;;;3.00;3.00;;;;;28.33;27.08;99863.41;5030683;28;45446;-79
2023/03/07 17:08:00;;;;;;;;;4.00;4.00;;;;;28.23;27.49;99872.06;5030664;27;46692;-80
2023/03/07 17:10:27;;;;;;;;;4.00;4.00;;;;;28.17;26.66;99861.19;5029490;28;45641;-79
2023/03/07 17:12:55;;;;;;;;;2.00;2.00;;;;;28.09;27.05;99859.56;5030384;28;45911;-79
2023/03/07 17:15:25;;;;;;;;;4.00;3.00;;;;;27.98;26.53;99850.19;5029034;27;45663;-79
2023/03/07 17:17:50;;;;;;;;;3.00;2.00;;;;;27.95;27.02;99865.09;5025983;27;46103;-76
2023/03/07 17:20:19;;;;;;;;;10.67;8.00;;;;;27.88;27.07;99856.97;5024231;27;45535;-85
2023/03/07 17:22:45;;;;;;;;;3.67;2.33;;;;;27.85;26.57;99853.84;5031315;27;45509;-88
2023/03/07 17:25:10;;;;;;;;;3.33;3.33;;;;;27.80;27.19;99854.53;5031302;28;45677;-88
2023/03/07 17:27:40;;;;;;;;;3.00;3.00;;;;;27.77;27.21;99857.69;5030245;28;46170;-87
2023/03/07 17:30:06;;;;;;;;;3.00;3.00;;;;;27.77;27.38;99868.59;5030269;27;45373;-90
2023/03/07 17:32:32;;;;;;;;;5.00;4.00;;;;;27.76;27.08;99880.53;5034282;27;45318;-83
2023/03/07 17:34:57;;;;;;;;;2.00;2.00;;;;;27.74;26.79;99880.75;5026406;27;45531;-88
2023/03/07 17:37:22;;;;;;;;;3.00;3.00;;;;;27.74;26.70;99893.53;5030263;27;46185;-89
2023/03/07 17:39:48;;;;;;;;;4.67;4.33;;;;;27.71;27.10;99896.72;5048510;27;46384;-84
2023/03/07 17:42:13;;;;;;;;;4.33;3.33;;;;;27.70;26.64;99901.31;5038718;28;45822;-83
2023/03/07 17:44:38;;;;;;;;;3.00;2.67;;;;;27.67;26.61;99899.03;5021771;27;45846;-83
2023/03/07 17:47:04;;;;;;;;;2.67;2.67;;;;;27.70;27.11;99903.22;5013797;28;46510;-81
2023/03/07 17:49:34;;;;;;;;;2.67;2.67;;;;;27.71;27.00;99896.72;5021524;27;45521;-78
2023/03/07 17:51:59;;;;;;;;;2.00;2.00;;;;;27.71;26.68;99904.91;5031128;27;45508;-82
2023/03/07 17:54:25;;;;;;;;;5.33;3.67;;;;;27.71;26.47;99899.44;5020997;27;45889;-78
2023/03/07 17:56:50;;;;;;;;;3.67;2.67;;;;;27.72;26.74;99904.66;5021614;27;46271;-79
2023/03/07 17:59:16;;;;;;;;;2.67;2.67;;;;;27.73;27.27;99905.50;5051776;27;45794;-84
2023/03/07 18:01:41;;;;;;;;;4.00;2.33;;;;;27.72;27.09;99912.84;5024360;27;45795;-81
2023/03/07 18:04:06;;;;;;;;;1.67;1.67;;;;;27.74;26.59;99913.47;5013744;27;45503;-80
2023/03/07 18:06:32;;;;;;;;;7.00;5.00;;;;;27.74;27.08;99910.75;5029058;28;46867;-77
2023/03/07 18:08:59;;;;;;;;;5.33;5.33;;;;;27.74;27.02;99901.72;5028999;28;45462;-85
2023/03/07 18:11:25;;;;;;;;;5.00;5.00;;;;;27.75;26.75;99904.22;5030158;27;45441;-85
2023/03/07 18:13:50;;;;;;;;;3.33;3.00;;;;;27.78;26.79;99911.16;5028539;27;45646;-83
2023/03/07 18:16:15;;;;;;;;;4.00;3.33;;;;;27.80;27.07;99906.31;5022184;28;51019;-83
2023/03/07 18:18:41;;;;;;;;;2.33;2.33;;;;;27.81;26.41;99907.16;5031179;27;45532;-85
2023/03/07 18:21:10;;;;;;;;;5.00;3.00;;;;;27.82;27.08;99917.00;5032467;27;45472;-84
2023/03/07 18:23:36;;;;;;;;;5.00;4.33;;;;;27.79;26.50;99914.72;5030526;27;46659;-86
2023/03/07 18:26:07;;;;;;;;;3.00;3.00;;;;;27.80;26.44;99919.97;5030721;28;45691;-83
2023/03/07 18:28:35;;;;;;;;;4.67;4.67;;;;;27.79;26.45;99918.25;5027465;27;45590;-85
2023/03/07 18:31:06;;;;;;;;;7.67;4.00;;;;;27.78;26.35;99902.97;5022624;28;45494;-84
2023/03/07 18:33:33;;;;;;;;;3.33;3.33;;;;;27.81;26.17;99902.53;5023501;28;45449;-86
2023/03/07 18:35:59;;;;;;;;;5.00;5.00;;;;;27.81;26.28;99909.88;5022287;28;46253;-86
2023/03/07 18:38:24;;;;;;;;;4.67;4.00;;;;;27.81;26.67;99913.44;5023282;28;45526;-87
2023/03/07 18:40:52;;;;;;;;;2.00;2.00;;;;;27.78;26.86;99908.41;5021198;28;45537;-87
2023/03/07 18:43:18;;;;;;;;;2.00;2.00;;;;;27.81;26.85;99915.31;5020561;28;45491;-88
2023/03/07 18:45:46;;;;;;;;;5.33;4.33;;;;;27.80;26.23;99922.69;5005100;28;47408;-86
2023/03/07 18:48:12;;;;;;;;;3.67;3.67;;;;;27.79;26.82;99914.72;5019721;27;46092;-87
2023/03/07 18:50:37;;;;;;;;;5.33;3.33;;;;;27.77;26.42;99914.06;5020709;28;45610;-86
2023/03/07 18:53:03;;;;;;;;;3.33;3.33;;;;;27.76;26.28;99907.81;5027013;27;45511;-88
2023/03/07 18:55:29;;;;;;;;;5.00;3.67;;;;;27.75;26.06;99906.16;5010130;27;47409;-87
2023/03/07 18:57:55;;;;;;;;;4.00;4.00;;;;;27.75;26.04;99906.97;5022062;28;45501;-86